Time,TemperatureF,DewpointF,PressureIn,WindDirection,WindDirectionDegrees,WindSpeedMPH,WindSpeedGustMPH,Humidity,HourlyPrecipIn,Conditions,Clouds,dailyrainin,SoftwareType,DateUTC
2013-02-05 00:00:00,38.8,28.8,29.58,WSW,248,11.0,31.0,67,0.00,,,0.00,Wunderground v.1.12,2013-02-05 05:00:00,
2013-02-05 00:01:00,19.2,15.4,29.92,ENE,71,0.0,0.0,85,0.00,,,0.00,Wunderground v.1.12,2013-02-05 05:01:00,
2013-02-05 00:03:00,19.2,15.4,29.92,ENE,71,0.0,0.0,85,0.00,,,0.00,Wunderground v.1.12,2013-02-05 05:03:00,
2013-02-05 00:05:00,38.8,28.8,29.58,WSW,248,11.0,31.0,67,0.00,,,0.00,Wunderground v.1.12,2013-02-05 05:05:00,
2013-02-05 00:08:00,19.2,15.4,29.92,ENE,71,2.0,2.0,85,0.00,,,0.00,Wunderground v.1.12,2013-02-05 05:08:00,
2013-02-05 00:10:00,19.2,15.4,29.92,ENE,71,0.0,1.0,85,0.00,,,0.00,Wunderground v.1.12,2013-02-05 05:10:00,
2013-02-05 00:12:00,19.2,15.4,29.93,ENE,71,0.0,1.0,85,0.00,,,0.00,Wunderground v.1.12,2013-02-05 05:12:00,
2013-02-05 00:15:00,38.8,28.8,29.58,WSW,248,11.0,31.0,67,0.00,,,0.00,Wunderground v.1.12,2013-02-05 05:15:00,
2013-02-05 00:18:00,19.1,15.3,29.93,ENE,71,1.0,1.0,85,0.00,,,0.00,Wunderground v.1.12,2013-02-05 05:18:00,
2013-02-05 00:20:00,38.8,28.8,29.58,WSW,248,11.0,31.0,67,0.00,,,0.00,Wunderground v.1.12,2013-02-05 05:20:00,
2013-02-05 00:23:00,19.1,15.3,29.93,ENE,71,0.0,0.0,85,0.00,,,0.00,Wunderground v.1.12,2013-02-05 05:23:00,
2013-02-05 00:25:00,38.8,28.8,29.58,WSW,248,11.0,31.0,67,0.00,,,0.00,Wunderground v.1.12,2013-02-05 05:25:00,
2013-02-05 00:28:00,18.9,15.1,29.92,ENE,71,0.0,0.0,85,0.00,,,0.00,Wunderground v.1.12,2013-02-05 05:28:00,
2013-02-05 00:30:00,38.8,28.8,29.58,WSW,248,11.0,31.0,67,0.00,,,0.00,Wunderground v.1.12,2013-02-05 05:30:00,
2013-02-05 00:33:00,18.9,15.1,29.92,ENE,71,0.0,0.0,85,0.00,,,0.00,Wunderground v.1.12,2013-02-05 05:33:00,
2013-02-05 00:35:00,38.8,28.8,29.58,WSW,248,11.0,31.0,67,0.00,,,0.00,Wunderground v.1.12,2013-02-05 05:35:00,
2013-02-05 00:38:00,18.9,15.1,29.92,ENE,71,1.0,1.0,85,0.00,,,0.00,Wunderground v.1.12,2013-02-05 05:38:00,
2013-02-05 00:40:00,38.8,28.8,29.58,WSW,248,11.0,31.0,67,0.00,,,0.00,Wunderground v.1.12,2013-02-05 05:40:00,
2013-02-05 00:44:00,18.9,15.4,29.92,ENE,71,1.0,1.0,86,0.00,,,0.00,Wunderground v.1.12,2013-02-05 05:44:00,
2013-02-05 00:45:00,37.2,28.0,29.59,WSW,248,12.0,29.0,69,0.00,,,0.00,Wunderground v.1.12,2013-02-05 05:45:00,
2013-02-05 00:49:00,18.9,15.4,29.92,ENE,71,0.0,1.0,86,0.00,,,0.00,Wunderground v.1.12,2013-02-05 05:49:00,
2013-02-05 00:50:00,37.2,28.0,29.59,WSW,248,12.0,29.0,69,0.00,,,0.00,Wunderground v.1.12,2013-02-05 05:50:00,
2013-02-05 00:55:00,18.9,15.4,29.92,ENE,71,1.0,1.0,86,0.00,,,0.00,Wunderground v.1.12,2013-02-05 05:55:00,
2013-02-05 01:00:00,18.9,15.4,29.92,ENE,71,0.0,1.0,86,0.00,,,0.00,Wunderground v.1.12,2013-02-05 06:00:00,
2013-02-05 01:05:00,37.2,28.0,29.59,WSW,248,12.0,29.0,69,0.00,,,0.00,Wunderground v.1.12,2013-02-05 06:05:00,
2013-02-05 01:06:00,19.1,15.6,29.92,ENE,71,1.0,2.0,86,0.00,,,0.00,Wunderground v.1.12,2013-02-05 06:06:00,
2013-02-05 01:10:00,37.2,28.0,29.59,WSW,248,12.0,29.0,69,0.00,,,0.00,Wunderground v.1.12,2013-02-05 06:10:00,
2013-02-05 01:12:00,19.1,15.6,29.91,ENE,71,2.0,2.0,86,0.00,,,0.00,Wunderground v.1.12,2013-02-05 06:12:00,
2013-02-05 01:15:00,36.3,26.0,29.61,WSW,248,15.0,33.0,66,0.00,,,0.00,Wunderground v.1.12,2013-02-05 06:15:00,
2013-02-05 01:18:00,19.1,15.6,29.91,ENE,71,0.0,2.0,86,0.00,,,0.00,Wunderground v.1.12,2013-02-05 06:18:00,
2013-02-05 01:20:00,36.3,26.0,29.61,WSW,248,15.0,33.0,66,0.00,,,0.00,Wunderground v.1.12,2013-02-05 06:20:00,
2013-02-05 01:23:00,19.2,15.7,29.91,ENE,71,0.0,2.0,86,0.00,,,0.00,Wunderground v.1.12,2013-02-05 06:23:00,
2013-02-05 01:25:00,36.3,26.0,29.61,WSW,248,15.0,33.0,66,0.00,,,0.00,Wunderground v.1.12,2013-02-05 06:25:00,
2013-02-05 01:29:00,19.2,15.7,29.91,ENE,71,0.0,2.0,86,0.00,,,0.00,Wunderground v.1.12,2013-02-05 06:29:00,
2013-02-05 01:30:00,36.3,26.0,29.61,WSW,248,15.0,33.0,66,0.00,,,0.00,Wunderground v.1.12,2013-02-05 06:30:00,
2013-02-05 01:34:00,19.2,15.7,29.91,ENE,71,3.0,3.0,86,0.00,,,0.00,Wunderground v.1.12,2013-02-05 06:34:00,
2013-02-05 01:35:00,36.3,26.0,29.61,WSW,248,15.0,33.0,66,0.00,,,0.00,Wunderground v.1.12,2013-02-05 06:35:00,
2013-02-05 01:39:00,19.2,15.7,29.91,ENE,71,0.0,4.0,86,0.00,,,0.00,Wunderground v.1.12,2013-02-05 06:39:00,
2013-02-05 01:40:00,36.3,26.0,29.61,WSW,248,15.0,33.0,66,0.00,,,0.00,Wunderground v.1.12,2013-02-05 06:40:00,
2013-02-05 01:45:00,19.2,15.7,29.90,ENE,71,1.0,2.0,86,0.00,,,0.00,Wunderground v.1.12,2013-02-05 06:45:00,
2013-02-05 01:50:00,19.1,15.6,29.90,ENE,75,2.0,2.0,86,0.00,,,0.00,Wunderground v.1.12,2013-02-05 06:50:00,
2013-02-05 01:55:00,36.8,25.4,29.60,WSW,248,15.0,34.0,63,0.00,,,0.00,Wunderground v.1.12,2013-02-05 06:55:00,
2013-02-05 01:56:00,19.1,15.6,29.90,ENE,75,0.0,1.0,86,0.00,,,0.00,Wunderground v.1.12,2013-02-05 06:56:00,
2013-02-05 02:00:00,36.8,25.4,29.60,WSW,248,15.0,34.0,63,0.00,,,0.00,Wunderground v.1.12,2013-02-05 07:00:00,
2013-02-05 02:01:00,19.1,15.6,29.91,ENE,75,1.0,2.0,86,0.00,,,0.00,Wunderground v.1.12,2013-02-05 07:01:00,
2013-02-05 02:05:00,36.8,25.4,29.60,WSW,248,15.0,34.0,63,0.00,,,0.00,Wunderground v.1.12,2013-02-05 07:05:00,
2013-02-05 02:06:00,19.1,15.6,29.91,ENE,75,0.0,2.0,86,0.00,,,0.00,Wunderground v.1.12,2013-02-05 07:06:00,
2013-02-05 02:10:00,36.8,25.4,29.60,WSW,248,15.0,34.0,63,0.00,,,0.00,Wunderground v.1.12,2013-02-05 07:10:00,
2013-02-05 02:11:00,19.1,15.6,29.90,ENE,75,0.0,1.0,86,0.00,,,0.00,Wunderground v.1.12,2013-02-05 07:11:00,
2013-02-05 02:15:00,36.2,24.8,29.61,SW,225,16.0,35.0,63,0.00,,,0.00,Wunderground v.1.12,2013-02-05 07:15:00,
2013-02-05 02:16:00,19.1,15.6,29.90,ENE,75,0.0,1.0,86,0.00,,,0.00,Wunderground v.1.12,2013-02-05 07:16:00,
2013-02-05 02:20:00,36.2,24.8,29.61,SW,225,16.0,35.0,63,0.00,,,0.00,Wunderground v.1.12,2013-02-05 07:20:00,
2013-02-05 02:22:00,19.1,15.6,29.90,ENE,75,0.0,0.0,86,0.00,,,0.00,Wunderground v.1.12,2013-02-05 07:22:00,
2013-02-05 02:25:00,36.2,24.8,29.61,SW,225,16.0,35.0,63,0.00,,,0.00,Wunderground v.1.12,2013-02-05 07:25:00,
2013-02-05 02:27:00,19.1,15.6,29.90,ENE,75,1.0,3.0,86,0.00,,,0.00,Wunderground v.1.12,2013-02-05 07:27:00,
2013-02-05 02:30:00,36.2,24.8,29.61,SW,225,16.0,35.0,63,0.00,,,0.00,Wunderground v.1.12,2013-02-05 07:30:00,
2013-02-05 02:32:00,19.1,15.6,29.90,ENE,75,2.0,4.0,86,0.00,,,0.00,Wunderground v.1.12,2013-02-05 07:32:00,
2013-02-05 02:35:00,36.2,24.8,29.61,SW,225,16.0,35.0,63,0.00,,,0.00,Wunderground v.1.12,2013-02-05 07:35:00,
2013-02-05 02:37:00,19.1,15.6,29.90,ENE,75,0.0,2.0,86,0.00,,,0.00,Wunderground v.1.12,2013-02-05 07:37:00,
2013-02-05 02:40:00,36.2,24.8,29.61,SW,225,16.0,35.0,63,0.00,,,0.00,Wunderground v.1.12,2013-02-05 07:40:00,
2013-02-05 02:42:00,19.1,15.6,29.91,ENE,75,1.0,2.0,86,0.00,,,0.00,Wunderground v.1.12,2013-02-05 07:42:00,
2013-02-05 02:45:00,35.8,24.0,29.61,SW,225,14.0,31.0,62,0.00,,,0.00,Wunderground v.1.12,2013-02-05 07:45:00,
2013-02-05 02:47:00,19.1,15.6,29.91,ENE,75,2.0,2.0,86,0.00,,,0.00,Wunderground v.1.12,2013-02-05 07:47:00,
2013-02-05 02:50:00,35.8,24.0,29.61,SW,225,14.0,31.0,62,0.00,,,0.00,Wunderground v.1.12,2013-02-05 07:50:00,
2013-02-05 02:52:00,19.1,15.6,29.91,ENE,75,2.0,3.0,86,0.00,,,0.00,Wunderground v.1.12,2013-02-05 07:52:00,
2013-02-05 02:55:00,35.8,24.0,29.61,SW,225,14.0,31.0,62,0.00,,,0.00,Wunderground v.1.12,2013-02-05 07:55:00,
2013-02-05 02:57:00,19.1,15.6,29.91,ENE,75,0.0,2.0,86,0.00,,,0.00,Wunderground v.1.12,2013-02-05 07:57:00,
2013-02-05 03:00:00,35.8,24.0,29.61,SW,225,14.0,31.0,62,0.00,,,0.00,Wunderground v.1.12,2013-02-05 08:00:00,
2013-02-05 03:02:00,19.1,15.3,29.91,ENE,75,0.0,2.0,85,0.00,,,0.00,Wunderground v.1.12,2013-02-05 08:02:00,
2013-02-05 03:05:00,35.8,24.0,29.61,SW,225,14.0,31.0,62,0.00,,,0.00,Wunderground v.1.12,2013-02-05 08:05:00,
2013-02-05 03:07:00,19.1,15.3,29.91,ENE,75,0.0,1.0,85,0.00,,,0.00,Wunderground v.1.12,2013-02-05 08:07:00,
2013-02-05 03:10:00,35.8,24.0,29.61,SW,225,14.0,31.0,62,0.00,,,0.00,Wunderground v.1.12,2013-02-05 08:10:00,
2013-02-05 03:13:00,19.1,15.3,29.92,ENE,75,0.0,3.0,85,0.00,,,0.00,Wunderground v.1.12,2013-02-05 08:13:00,
2013-02-05 03:15:00,36.2,24.4,29.61,SW,225,15.0,31.0,62,0.00,,,0.00,Wunderground v.1.12,2013-02-05 08:15:00,
2013-02-05 03:18:00,19.1,15.3,29.92,ENE,75,1.0,2.0,85,0.00,,,0.00,Wunderground v.1.12,2013-02-05 08:18:00,
2013-02-05 03:20:00,36.2,24.4,29.61,SW,225,15.0,31.0,62,0.00,,,0.00,Wunderground v.1.12,2013-02-05 08:20:00,
2013-02-05 03:23:00,19.1,15.3,29.92,ENE,75,1.0,2.0,85,0.00,,,0.00,Wunderground v.1.12,2013-02-05 08:23:00,
2013-02-05 03:25:00,36.2,24.4,29.61,SW,225,15.0,31.0,62,0.00,,,0.00,Wunderground v.1.12,2013-02-05 08:25:00,
2013-02-05 03:28:00,19.1,15.3,29.92,ENE,75,0.0,1.0,85,0.00,,,0.00,Wunderground v.1.12,2013-02-05 08:28:00,
2013-02-05 03:30:00,36.2,24.4,29.61,SW,225,15.0,31.0,62,0.00,,,0.00,Wunderground v.1.12,2013-02-05 08:30:00,
2013-02-05 03:33:00,19.1,15.3,29.92,ENE,75,0.0,2.0,85,0.00,,,0.00,Wunderground v.1.12,2013-02-05 08:33:00,
2013-02-05 03:35:00,36.2,24.4,29.61,SW,225,15.0,31.0,62,0.00,,,0.00,Wunderground v.1.12,2013-02-05 08:35:00,
2013-02-05 03:38:00,19.1,15.3,29.92,ENE,75,0.0,3.0,85,0.00,,,0.00,Wunderground v.1.12,2013-02-05 08:38:00,
2013-02-05 03:40:00,36.2,24.4,29.61,SW,225,15.0,31.0,62,0.00,,,0.00,Wunderground v.1.12,2013-02-05 08:40:00,
2013-02-05 03:43:00,19.1,15.3,29.91,ENE,75,0.0,3.0,85,0.00,,,0.00,Wunderground v.1.12,2013-02-05 08:43:00,
2013-02-05 03:45:00,36.0,24.2,29.61,SW,225,14.0,30.0,62,0.00,,,0.00,Wunderground v.1.12,2013-02-05 08:45:00,
2013-02-05 03:48:00,19.1,15.3,29.91,ENE,75,0.0,1.0,85,0.00,,,0.00,Wunderground v.1.12,2013-02-05 08:48:00,
2013-02-05 03:50:00,36.0,24.2,29.61,SW,225,14.0,30.0,62,0.00,,,0.00,Wunderground v.1.12,2013-02-05 08:50:00,
2013-02-05 03:53:00,19.1,15.3,29.91,ENE,75,0.0,0.0,85,0.00,,,0.00,Wunderground v.1.12,2013-02-05 08:53:00,
2013-02-05 03:55:00,36.0,24.2,29.61,SW,225,14.0,30.0,62,0.00,,,0.00,Wunderground v.1.12,2013-02-05 08:55:00,
2013-02-05 03:58:00,19.1,15.3,29.91,ENE,75,0.0,0.0,85,0.00,,,0.00,Wunderground v.1.12,2013-02-05 08:58:00,
2013-02-05 04:00:00,36.0,24.2,29.61,SW,225,14.0,30.0,62,0.00,,,0.00,Wunderground v.1.12,2013-02-05 09:00:00,
2013-02-05 04:03:00,19.1,15.3,29.91,ENE,75,0.0,0.0,85,0.00,,,0.00,Wunderground v.1.12,2013-02-05 09:03:00,
2013-02-05 04:05:00,36.0,24.2,29.61,SW,225,14.0,30.0,62,0.00,,,0.00,Wunderground v.1.12,2013-02-05 09:05:00,
2013-02-05 04:08:00,19.1,15.3,29.91,ENE,75,0.0,0.0,85,0.00,,,0.00,Wunderground v.1.12,2013-02-05 09:08:00,
2013-02-05 04:10:00,36.0,24.2,29.61,SW,225,14.0,30.0,62,0.00,,,0.00,Wunderground v.1.12,2013-02-05 09:10:00,
2013-02-05 04:14:00,19.1,15.3,29.91,ENE,75,0.0,2.0,85,0.00,,,0.00,Wunderground v.1.12,2013-02-05 09:14:00,
2013-02-05 04:15:00,36.0,24.6,29.61,SW,225,12.0,29.0,63,0.00,,,0.00,Wunderground v.1.12,2013-02-05 09:15:00,
2013-02-05 04:19:00,19.1,15.3,29.91,ENE,75,0.0,1.0,85,0.00,,,0.00,Wunderground v.1.12,2013-02-05 09:19:00,
2013-02-05 04:20:00,36.0,24.6,29.61,SW,225,12.0,29.0,63,0.00,,,0.00,Wunderground v.1.12,2013-02-05 09:20:00,
2013-02-05 04:24:00,19.1,15.3,29.91,ENE,75,0.0,0.0,85,0.00,,,0.00,Wunderground v.1.12,2013-02-05 09:24:00,
2013-02-05 04:25:00,36.0,24.6,29.61,SW,225,12.0,29.0,63,0.00,,,0.00,Wunderground v.1.12,2013-02-05 09:25:00,
2013-02-05 04:29:00,19.1,15.3,29.90,ENE,75,1.0,2.0,85,0.00,,,0.00,Wunderground v.1.12,2013-02-05 09:29:00,
2013-02-05 04:30:00,36.0,24.6,29.61,SW,225,12.0,29.0,63,0.00,,,0.00,Wunderground v.1.12,2013-02-05 09:30:00,
2013-02-05 04:34:00,19.1,15.3,29.90,ENE,75,0.0,2.0,85,0.00,,,0.00,Wunderground v.1.12,2013-02-05 09:34:00,
2013-02-05 04:35:00,36.0,24.6,29.61,SW,225,12.0,29.0,63,0.00,,,0.00,Wunderground v.1.12,2013-02-05 09:35:00,
2013-02-05 04:39:00,19.1,15.3,29.90,ENE,75,1.0,3.0,85,0.00,,,0.00,Wunderground v.1.12,2013-02-05 09:39:00,
2013-02-05 04:40:00,36.0,24.6,29.61,SW,225,12.0,29.0,63,0.00,,,0.00,Wunderground v.1.12,2013-02-05 09:40:00,
2013-02-05 04:44:00,19.1,15.3,29.90,ENE,75,0.0,2.0,85,0.00,,,0.00,Wunderground v.1.12,2013-02-05 09:44:00,
2013-02-05 04:45:00,35.9,25.3,29.63,WSW,248,13.0,27.0,65,0.00,,,0.00,Wunderground v.1.12,2013-02-05 09:45:00,
2013-02-05 04:49:00,19.1,15.3,29.90,ENE,76,1.0,3.0,85,0.00,,,0.00,Wunderground v.1.12,2013-02-05 09:49:00,
2013-02-05 04:50:00,35.9,25.3,29.63,WSW,248,13.0,27.0,65,0.00,,,0.00,Wunderground v.1.12,2013-02-05 09:50:00,
2013-02-05 04:54:00,19.1,15.3,29.90,ENE,77,1.0,3.0,85,0.00,,,0.00,Wunderground v.1.12,2013-02-05 09:54:00,
2013-02-05 04:55:00,35.9,25.3,29.63,WSW,248,13.0,27.0,65,0.00,,,0.00,Wunderground v.1.12,2013-02-05 09:55:00,
2013-02-05 04:59:00,19.1,15.3,29.89,ENE,77,1.0,1.0,85,0.00,,,0.00,Wunderground v.1.12,2013-02-05 09:59:00,
2013-02-05 05:00:00,35.9,25.3,29.63,WSW,248,13.0,27.0,65,0.00,,,0.00,Wunderground v.1.12,2013-02-05 10:00:00,
2013-02-05 05:04:00,19.1,15.3,29.89,East,88,3.0,4.0,85,0.00,,,0.00,Wunderground v.1.12,2013-02-05 10:04:00,
2013-02-05 05:05:00,35.9,25.3,29.63,WSW,248,13.0,27.0,65,0.00,,,0.00,Wunderground v.1.12,2013-02-05 10:05:00,
2013-02-05 05:09:00,18.9,15.1,29.89,East,88,1.0,3.0,85,0.00,,,0.00,Wunderground v.1.12,2013-02-05 10:09:00,
2013-02-05 05:10:00,35.9,25.3,29.63,WSW,248,13.0,27.0,65,0.00,,,0.00,Wunderground v.1.12,2013-02-05 10:10:00,
2013-02-05 05:14:00,18.9,15.1,29.90,East,88,2.0,3.0,85,0.00,,,0.00,Wunderground v.1.12,2013-02-05 10:14:00,
2013-02-05 05:15:00,35.8,25.2,29.64,WSW,248,12.0,26.0,65,0.00,,,0.00,Wunderground v.1.12,2013-02-05 10:15:00,
2013-02-05 05:19:00,18.9,15.1,29.90,East,88,2.0,2.0,85,0.00,,,0.00,Wunderground v.1.12,2013-02-05 10:19:00,
2013-02-05 05:20:00,35.8,25.2,29.64,WSW,248,12.0,26.0,65,0.00,,,0.00,Wunderground v.1.12,2013-02-05 10:20:00,
2013-02-05 05:24:00,18.9,15.1,29.90,East,88,0.0,3.0,85,0.00,,,0.00,Wunderground v.1.12,2013-02-05 10:24:00,
2013-02-05 05:25:00,35.8,25.2,29.64,WSW,248,12.0,26.0,65,0.00,,,0.00,Wunderground v.1.12,2013-02-05 10:25:00,
2013-02-05 05:29:00,18.9,15.1,29.90,East,88,0.0,2.0,85,0.00,,,0.00,Wunderground v.1.12,2013-02-05 10:29:00,
2013-02-05 05:30:00,35.8,25.2,29.64,WSW,248,12.0,26.0,65,0.00,,,0.00,Wunderground v.1.12,2013-02-05 10:30:00,
2013-02-05 05:34:00,18.9,15.1,29.90,East,88,0.0,1.0,85,0.00,,,0.00,Wunderground v.1.12,2013-02-05 10:34:00,
2013-02-05 05:35:00,35.8,25.2,29.64,WSW,248,12.0,26.0,65,0.00,,,0.00,Wunderground v.1.12,2013-02-05 10:35:00,
2013-02-05 05:39:00,18.9,15.1,29.90,East,88,0.0,0.0,85,0.00,,,0.00,Wunderground v.1.12,2013-02-05 10:39:00,
2013-02-05 05:40:00,35.8,25.2,29.64,WSW,248,12.0,26.0,65,0.00,,,0.00,Wunderground v.1.12,2013-02-05 10:40:00,
2013-02-05 05:44:00,18.9,15.1,29.90,East,88,0.0,1.0,85,0.00,,,0.00,Wunderground v.1.12,2013-02-05 10:44:00,
2013-02-05 05:45:00,35.5,24.5,29.66,WSW,248,14.0,29.0,64,0.00,,,0.00,Wunderground v.1.12,2013-02-05 10:45:00,
2013-02-05 05:49:00,18.9,15.1,29.90,East,88,1.0,2.0,85,0.00,,,0.00,Wunderground v.1.12,2013-02-05 10:49:00,
2013-02-05 05:50:00,35.5,24.5,29.66,WSW,248,14.0,29.0,64,0.00,,,0.00,Wunderground v.1.12,2013-02-05 10:50:00,
2013-02-05 05:54:00,18.9,15.1,29.90,East,88,0.0,2.0,85,0.00,,,0.00,Wunderground v.1.12,2013-02-05 10:54:00,
2013-02-05 05:55:00,35.5,24.5,29.66,WSW,248,14.0,29.0,64,0.00,,,0.00,Wunderground v.1.12,2013-02-05 10:55:00,
2013-02-05 05:59:00,18.9,15.1,29.91,East,88,0.0,1.0,85,0.00,,,0.00,Wunderground v.1.12,2013-02-05 10:59:00,
2013-02-05 06:00:00,35.5,24.5,29.66,WSW,248,14.0,29.0,64,0.00,,,0.00,Wunderground v.1.12,2013-02-05 11:00:00,
2013-02-05 06:04:00,18.9,15.1,29.91,East,88,2.0,3.0,85,0.00,,,0.00,Wunderground v.1.12,2013-02-05 11:04:00,
2013-02-05 06:05:00,35.5,24.5,29.66,WSW,248,14.0,29.0,64,0.00,,,0.00,Wunderground v.1.12,2013-02-05 11:05:00,
2013-02-05 06:09:00,18.9,15.1,29.91,East,88,0.0,2.0,85,0.00,,,0.00,Wunderground v.1.12,2013-02-05 11:09:00,
2013-02-05 06:10:00,35.5,24.5,29.66,WSW,248,14.0,29.0,64,0.00,,,0.00,Wunderground v.1.12,2013-02-05 11:10:00,
2013-02-05 06:14:00,18.9,15.1,29.91,East,88,0.0,2.0,85,0.00,,,0.00,Wunderground v.1.12,2013-02-05 11:14:00,
2013-02-05 06:15:00,35.2,25.0,29.67,WSW,248,13.0,29.0,66,0.00,,,0.00,Wunderground v.1.12,2013-02-05 11:15:00,
2013-02-05 06:19:00,18.9,15.1,29.91,East,88,1.0,2.0,85,0.00,,,0.00,Wunderground v.1.12,2013-02-05 11:19:00,
2013-02-05 06:20:00,35.2,25.0,29.67,WSW,248,13.0,29.0,66,0.00,,,0.00,Wunderground v.1.12,2013-02-05 11:20:00,
2013-02-05 06:24:00,18.9,15.1,29.91,East,88,0.0,2.0,85,0.00,,,0.00,Wunderground v.1.12,2013-02-05 11:24:00,
2013-02-05 06:25:00,35.2,25.0,29.67,WSW,248,13.0,29.0,66,0.00,,,0.00,Wunderground v.1.12,2013-02-05 11:25:00,
2013-02-05 06:29:00,18.9,15.1,29.90,East,88,0.0,3.0,85,0.00,,,0.00,Wunderground v.1.12,2013-02-05 11:29:00,
2013-02-05 06:30:00,35.2,25.0,29.67,WSW,248,13.0,29.0,66,0.00,,,0.00,Wunderground v.1.12,2013-02-05 11:30:00,
2013-02-05 06:34:00,19.1,15.3,29.90,East,88,0.0,1.0,85,0.00,,,0.00,Wunderground v.1.12,2013-02-05 11:34:00,
2013-02-05 06:35:00,35.2,25.0,29.67,WSW,248,13.0,29.0,66,0.00,,,0.00,Wunderground v.1.12,2013-02-05 11:35:00,
2013-02-05 06:39:00,18.9,15.1,29.90,East,88,0.0,2.0,85,0.00,,,0.00,Wunderground v.1.12,2013-02-05 11:39:00,
2013-02-05 06:40:00,35.2,25.0,29.67,WSW,248,13.0,29.0,66,0.00,,,0.00,Wunderground v.1.12,2013-02-05 11:40:00,
2013-02-05 06:44:00,19.1,15.3,29.91,East,88,0.0,2.0,85,0.00,,,0.00,Wunderground v.1.12,2013-02-05 11:44:00,
2013-02-05 06:45:00,35.0,25.1,29.69,WSW,248,14.0,30.0,67,0.00,,,0.00,Wunderground v.1.12,2013-02-05 11:45:00,
2013-02-05 06:49:00,19.1,15.3,29.91,East,88,0.0,2.0,85,0.00,,,0.00,Wunderground v.1.12,2013-02-05 11:49:00,
2013-02-05 06:50:00,35.0,25.1,29.69,WSW,248,14.0,30.0,67,0.00,,,0.00,Wunderground v.1.12,2013-02-05 11:50:00,
2013-02-05 06:55:00,19.1,15.3,29.91,East,88,1.0,1.0,85,0.00,,,0.00,Wunderground v.1.12,2013-02-05 11:55:00,
2013-02-05 07:00:00,18.9,15.4,29.90,East,88,0.0,0.0,86,0.00,,,0.00,Wunderground v.1.12,2013-02-05 12:00:00,
2013-02-05 07:05:00,18.9,15.4,29.90,East,88,0.0,0.0,86,0.00,,,0.00,Wunderground v.1.12,2013-02-05 12:05:00,
2013-02-05 07:10:00,18.9,15.4,29.90,East,88,0.0,0.0,86,0.00,,,0.00,Wunderground v.1.12,2013-02-05 12:10:00,
2013-02-05 07:15:00,18.8,15.3,29.91,East,88,0.0,0.0,86,0.00,,,0.00,Wunderground v.1.12,2013-02-05 12:15:00,
2013-02-05 07:20:00,18.8,15.0,29.91,East,88,0.0,0.0,85,0.00,,,0.00,Wunderground v.1.12,2013-02-05 12:20:00,
2013-02-05 07:25:00,18.8,15.0,29.91,East,88,0.0,0.0,85,0.00,,,0.00,Wunderground v.1.12,2013-02-05 12:25:00,
2013-02-05 07:30:00,18.6,14.8,29.91,East,88,0.0,0.0,85,0.00,,,0.00,Wunderground v.1.12,2013-02-05 12:30:00,
2013-02-05 07:35:00,18.4,14.6,29.91,East,88,0.0,0.0,85,0.00,,,0.00,Wunderground v.1.12,2013-02-05 12:35:00,
2013-02-05 07:40:00,18.1,14.4,29.91,East,88,0.0,0.0,85,0.00,,,0.00,Wunderground v.1.12,2013-02-05 12:40:00,
2013-02-05 07:45:00,18.0,14.3,29.91,East,88,0.0,0.0,85,0.00,,,0.00,Wunderground v.1.12,2013-02-05 12:45:00,
2013-02-05 07:50:00,17.7,14.0,29.91,East,88,0.0,0.0,85,0.00,,,0.00,Wunderground v.1.12,2013-02-05 12:50:00,
2013-02-05 07:55:00,17.3,13.6,29.91,East,88,0.0,0.0,85,0.00,,,0.00,Wunderground v.1.12,2013-02-05 12:55:00,
2013-02-05 08:00:00,17.0,13.3,29.92,East,88,0.0,1.0,85,0.00,,,0.00,Wunderground v.1.12,2013-02-05 13:00:00,
2013-02-05 08:05:00,17.0,13.5,29.92,East,88,0.0,1.0,86,0.00,,,0.00,Wunderground v.1.12,2013-02-05 13:05:00,
2013-02-05 08:10:00,17.0,13.5,29.92,East,88,1.0,1.0,86,0.00,,,0.00,Wunderground v.1.12,2013-02-05 13:10:00,
2013-02-05 08:15:00,17.0,13.5,29.91,East,88,0.0,0.0,86,0.00,,,0.00,Wunderground v.1.12,2013-02-05 13:15:00,
2013-02-05 08:20:00,16.9,13.4,29.91,East,88,0.0,0.0,86,0.00,,,0.00,Wunderground v.1.12,2013-02-05 13:20:00,
2013-02-05 08:25:00,16.9,13.4,29.91,East,88,0.0,0.0,86,0.00,,,0.00,Wunderground v.1.12,2013-02-05 13:25:00,
2013-02-05 08:30:00,16.9,13.4,29.91,East,88,0.0,0.0,86,0.00,,,0.00,Wunderground v.1.12,2013-02-05 13:30:00,
2013-02-05 08:35:00,16.9,13.4,29.91,East,88,0.0,0.0,86,0.00,,,0.00,Wunderground v.1.12,2013-02-05 13:35:00,
2013-02-05 08:40:00,16.9,13.4,29.91,East,88,0.0,0.0,86,0.00,,,0.00,Wunderground v.1.12,2013-02-05 13:40:00,
2013-02-05 08:45:00,16.9,13.7,29.92,East,88,0.0,0.0,87,0.00,,,0.00,Wunderground v.1.12,2013-02-05 13:45:00,
2013-02-05 08:50:00,34.7,25.9,29.74,WSW,248,11.0,22.0,70,0.00,,,0.00,Wunderground v.1.12,2013-02-05 13:50:00,
2013-02-05 08:51:00,17.2,14.0,29.92,East,88,0.0,0.0,87,0.00,,,0.00,Wunderground v.1.12,2013-02-05 13:51:00,
2013-02-05 08:55:00,34.7,25.9,29.74,WSW,248,11.0,22.0,70,0.00,,,0.00,Wunderground v.1.12,2013-02-05 13:55:00,
2013-02-05 08:56:00,17.5,14.3,29.92,East,88,0.0,2.0,87,0.00,,,0.00,Wunderground v.1.12,2013-02-05 13:56:00,
2013-02-05 09:00:00,34.7,25.9,29.74,WSW,248,11.0,22.0,70,0.00,,,0.00,Wunderground v.1.12,2013-02-05 14:00:00,
2013-02-05 09:01:00,17.7,14.5,29.92,East,88,1.0,2.0,87,0.00,,,0.00,Wunderground v.1.12,2013-02-05 14:01:00,
2013-02-05 09:05:00,34.7,25.9,29.74,WSW,248,11.0,22.0,70,0.00,,,0.00,Wunderground v.1.12,2013-02-05 14:05:00,
2013-02-05 09:06:00,18.0,14.8,29.92,East,93,3.0,3.0,87,0.00,,,0.00,Wunderground v.1.12,2013-02-05 14:06:00,
2013-02-05 09:10:00,34.7,25.9,29.74,WSW,248,11.0,22.0,70,0.00,,,0.00,Wunderground v.1.12,2013-02-05 14:10:00,
2013-02-05 09:11:00,18.1,14.9,29.92,East,93,0.0,2.0,87,0.00,,,0.00,Wunderground v.1.12,2013-02-05 14:11:00,
2013-02-05 09:15:00,34.6,25.8,29.75,WSW,248,10.0,21.0,70,0.00,,,0.00,Wunderground v.1.12,2013-02-05 14:15:00,
2013-02-05 09:16:00,18.4,15.2,29.92,East,93,2.0,3.0,87,0.00,,,0.00,Wunderground v.1.12,2013-02-05 14:16:00,
2013-02-05 09:20:00,34.6,25.8,29.75,WSW,248,10.0,21.0,70,0.00,,,0.00,Wunderground v.1.12,2013-02-05 14:20:00,
2013-02-05 09:21:00,18.8,15.6,29.92,East,93,0.0,2.0,87,0.00,,,0.00,Wunderground v.1.12,2013-02-05 14:21:00,
2013-02-05 09:25:00,34.6,25.8,29.75,WSW,248,10.0,21.0,70,0.00,,,0.00,Wunderground v.1.12,2013-02-05 14:25:00,
2013-02-05 09:26:00,19.1,15.6,29.92,ESE,107,1.0,3.0,86,0.00,,,0.00,Wunderground v.1.12,2013-02-05 14:26:00,
2013-02-05 09:30:00,34.6,25.8,29.75,WSW,248,10.0,21.0,70,0.00,,,0.00,Wunderground v.1.12,2013-02-05 14:30:00,
2013-02-05 09:31:00,19.2,15.7,29.92,SSE,152,3.0,5.0,86,0.00,,,0.00,Wunderground v.1.12,2013-02-05 14:31:00,
2013-02-05 09:35:00,34.6,25.8,29.75,WSW,248,10.0,21.0,70,0.00,,,0.00,Wunderground v.1.12,2013-02-05 14:35:00,
2013-02-05 09:36:00,19.4,15.6,29.92,SSW,202,2.0,5.0,85,0.00,,,0.00,Wunderground v.1.12,2013-02-05 14:36:00,
2013-02-05 09:40:00,34.6,25.8,29.75,WSW,248,10.0,21.0,70,0.00,,,0.00,Wunderground v.1.12,2013-02-05 14:40:00,
2013-02-05 09:42:00,19.4,15.6,29.92,SSW,202,4.0,6.0,85,0.00,,,0.00,Wunderground v.1.12,2013-02-05 14:42:00,
2013-02-05 09:45:00,33.8,25.4,29.77,WSW,248,11.0,24.0,71,0.00,,,0.00,Wunderground v.1.12,2013-02-05 14:45:00,
2013-02-05 09:47:00,19.5,15.7,29.92,SSW,202,1.0,5.0,85,0.00,,,0.00,Wunderground v.1.12,2013-02-05 14:47:00,
2013-02-05 09:50:00,33.8,25.4,29.77,WSW,248,11.0,24.0,71,0.00,,,0.00,Wunderground v.1.12,2013-02-05 14:50:00,
2013-02-05 09:52:00,19.9,15.8,29.92,SSW,208,4.0,6.0,84,0.00,,,0.00,Wunderground v.1.12,2013-02-05 14:52:00,
2013-02-05 09:55:00,33.8,25.4,29.77,WSW,248,11.0,24.0,71,0.00,,,0.00,Wunderground v.1.12,2013-02-05 14:55:00,
2013-02-05 09:57:00,19.9,15.8,29.92,SSW,208,0.0,5.0,84,0.00,,,0.00,Wunderground v.1.12,2013-02-05 14:57:00,
2013-02-05 10:00:00,33.8,25.4,29.77,WSW,248,11.0,24.0,71,0.00,,,0.00,Wunderground v.1.12,2013-02-05 15:00:00,
2013-02-05 10:02:00,20.2,16.1,29.92,SSW,208,4.0,6.0,84,0.00,,,0.00,Wunderground v.1.12,2013-02-05 15:02:00,
2013-02-05 10:05:00,33.8,25.4,29.77,WSW,248,11.0,24.0,71,0.00,,,0.00,Wunderground v.1.12,2013-02-05 15:05:00,
2013-02-05 10:07:00,20.3,16.0,29.92,SSW,208,4.0,6.0,83,0.00,,,0.00,Wunderground v.1.12,2013-02-05 15:07:00,
2013-02-05 10:10:00,33.8,25.4,29.77,WSW,248,11.0,24.0,71,0.00,,,0.00,Wunderground v.1.12,2013-02-05 15:10:00,
2013-02-05 10:12:00,20.5,16.2,29.91,SSW,205,5.0,7.0,83,0.00,,,0.00,Wunderground v.1.12,2013-02-05 15:12:00,
2013-02-05 10:15:00,33.5,25.1,29.78,WSW,248,11.0,21.0,71,0.00,,,0.00,Wunderground v.1.12,2013-02-05 15:15:00,
2013-02-05 10:17:00,20.5,16.2,29.91,SSW,210,1.0,6.0,83,0.00,,,0.00,Wunderground v.1.12,2013-02-05 15:17:00,
2013-02-05 10:20:00,33.5,25.1,29.78,WSW,248,11.0,21.0,71,0.00,,,0.00,Wunderground v.1.12,2013-02-05 15:20:00,
2013-02-05 10:23:00,20.5,15.9,29.91,SSW,212,7.0,7.0,82,0.00,,,0.00,Wunderground v.1.12,2013-02-05 15:23:00,
2013-02-05 10:25:00,33.5,25.1,29.78,WSW,248,11.0,21.0,71,0.00,,,0.00,Wunderground v.1.12,2013-02-05 15:25:00,
2013-02-05 10:28:00,20.6,16.0,29.91,SSW,212,2.0,7.0,82,0.00,,,0.00,Wunderground v.1.12,2013-02-05 15:28:00,
2013-02-05 10:30:00,33.5,25.1,29.78,WSW,248,11.0,21.0,71,0.00,,,0.00,Wunderground v.1.12,2013-02-05 15:30:00,
2013-02-05 10:33:00,20.6,15.7,29.91,SSW,208,6.0,9.0,81,0.00,,,0.00,Wunderground v.1.12,2013-02-05 15:33:00,
2013-02-05 10:35:00,33.5,25.1,29.78,WSW,248,11.0,21.0,71,0.00,,,0.00,Wunderground v.1.12,2013-02-05 15:35:00,
2013-02-05 10:38:00,20.5,15.6,29.91,SSW,210,2.0,8.0,81,0.00,,,0.00,Wunderground v.1.12,2013-02-05 15:38:00,
2013-02-05 10:40:00,33.5,25.1,29.78,WSW,248,11.0,21.0,71,0.00,,,0.00,Wunderground v.1.12,2013-02-05 15:40:00,
2013-02-05 10:44:00,20.6,15.7,29.90,SSW,206,1.0,7.0,81,0.00,,,0.00,Wunderground v.1.12,2013-02-05 15:44:00,
2013-02-05 10:45:00,33.4,25.0,29.78,WSW,248,9.0,21.0,71,0.00,,,0.00,Wunderground v.1.12,2013-02-05 15:45:00,
2013-02-05 10:49:00,20.8,15.6,29.90,SSW,199,5.0,11.0,80,0.00,,,0.00,Wunderground v.1.12,2013-02-05 15:49:00,
2013-02-05 10:50:00,33.4,25.0,29.78,WSW,248,9.0,21.0,71,0.00,,,0.00,Wunderground v.1.12,2013-02-05 15:50:00,
2013-02-05 10:54:00,20.8,15.6,29.90,SW,221,4.0,9.0,80,0.00,,,0.00,Wunderground v.1.12,2013-02-05 15:54:00,
2013-02-05 10:55:00,33.4,25.0,29.78,WSW,248,9.0,21.0,71,0.00,,,0.00,Wunderground v.1.12,2013-02-05 15:55:00,
2013-02-05 10:59:00,21.0,15.8,29.89,South,174,3.0,9.0,80,0.00,,,0.00,Wunderground v.1.12,2013-02-05 15:59:00,
2013-02-05 11:00:00,33.4,25.0,29.78,WSW,248,9.0,21.0,71,0.00,,,0.00,Wunderground v.1.12,2013-02-05 16:00:00,
2013-02-05 11:04:00,21.1,15.6,29.89,SW,219,5.0,12.0,79,0.00,,,0.00,Wunderground v.1.12,2013-02-05 16:04:00,
2013-02-05 11:05:00,33.4,25.0,29.78,WSW,248,9.0,21.0,71,0.00,,,0.00,Wunderground v.1.12,2013-02-05 16:05:00,
2013-02-05 11:09:00,21.1,15.6,29.89,SW,226,5.0,13.0,79,0.00,,,0.00,Wunderground v.1.12,2013-02-05 16:09:00,
2013-02-05 11:10:00,33.4,25.0,29.78,WSW,248,9.0,21.0,71,0.00,,,0.00,Wunderground v.1.12,2013-02-05 16:10:00,
2013-02-05 11:14:00,21.3,15.5,29.89,SSW,207,2.0,9.0,78,0.00,,,0.00,Wunderground v.1.12,2013-02-05 16:14:00,
2013-02-05 11:15:00,33.2,24.8,29.78,West,270,9.0,22.0,71,0.00,,,0.00,Wunderground v.1.12,2013-02-05 16:15:00,
2013-02-05 11:19:00,21.4,15.6,29.89,SW,235,7.0,12.0,78,0.00,,,0.00,Wunderground v.1.12,2013-02-05 16:19:00,
2013-02-05 11:20:00,33.2,24.8,29.78,West,270,9.0,22.0,71,0.00,,,0.00,Wunderground v.1.12,2013-02-05 16:20:00,
2013-02-05 11:24:00,21.8,16.0,29.89,SW,226,4.0,9.0,78,0.00,,,0.00,Wunderground v.1.12,2013-02-05 16:24:00,
2013-02-05 11:25:00,33.2,24.8,29.78,West,270,9.0,22.0,71,0.00,,,0.00,Wunderground v.1.12,2013-02-05 16:25:00,
2013-02-05 11:29:00,21.8,16.0,29.89,SSW,206,6.0,12.0,78,0.00,,,0.00,Wunderground v.1.12,2013-02-05 16:29:00,
2013-02-05 11:30:00,33.2,24.8,29.78,West,270,9.0,22.0,71,0.00,,,0.00,Wunderground v.1.12,2013-02-05 16:30:00,
2013-02-05 11:34:00,21.9,16.1,29.89,SW,219,7.0,8.0,78,0.00,,,0.00,Wunderground v.1.12,2013-02-05 16:34:00,
2013-02-05 11:35:00,33.2,24.8,29.78,West,270,9.0,22.0,71,0.00,,,0.00,Wunderground v.1.12,2013-02-05 16:35:00,
2013-02-05 11:39:00,21.9,15.8,29.89,South,190,4.0,12.0,77,0.00,,,0.00,Wunderground v.1.12,2013-02-05 16:39:00,
2013-02-05 11:40:00,33.2,24.8,29.78,West,270,9.0,22.0,71,0.00,,,0.00,Wunderground v.1.12,2013-02-05 16:40:00,
2013-02-05 11:44:00,22.4,16.3,29.86,South,175,5.0,12.0,77,0.00,,,0.00,Wunderground v.1.12,2013-02-05 16:44:00,
2013-02-05 11:45:00,33.1,24.4,29.80,West,270,9.0,20.0,70,0.00,,,0.00,Wunderground v.1.12,2013-02-05 16:45:00,
2013-02-05 11:49:00,22.9,16.5,29.86,SW,232,7.0,12.0,76,0.00,,,0.00,Wunderground v.1.12,2013-02-05 16:49:00,
2013-02-05 11:50:00,33.1,24.4,29.80,West,270,9.0,20.0,70,0.00,,,0.00,Wunderground v.1.12,2013-02-05 16:50:00,
2013-02-05 11:54:00,22.9,15.8,29.86,SW,217,7.0,11.0,74,0.00,,,0.00,Wunderground v.1.12,2013-02-05 16:54:00,
2013-02-05 11:55:00,33.1,24.4,29.80,West,270,9.0,20.0,70,0.00,,,0.00,Wunderground v.1.12,2013-02-05 16:55:00,
2013-02-05 11:59:00,23.5,16.4,29.87,SW,231,2.0,13.0,74,0.00,,,0.00,Wunderground v.1.12,2013-02-05 16:59:00,
2013-02-05 12:00:00,33.1,24.4,29.80,West,270,9.0,20.0,70,0.00,,,0.00,Wunderground v.1.12,2013-02-05 17:00:00,
2013-02-05 12:04:00,23.6,16.2,29.87,SW,220,7.0,13.0,73,0.00,,,0.00,Wunderground v.1.12,2013-02-05 17:04:00,
2013-02-05 12:05:00,33.1,24.4,29.80,West,270,9.0,20.0,70,0.00,,,0.00,Wunderground v.1.12,2013-02-05 17:05:00,
2013-02-05 12:09:00,24.1,16.4,29.87,SW,216,9.0,11.0,72,0.00,,,0.00,Wunderground v.1.12,2013-02-05 17:09:00,
2013-02-05 12:10:00,33.1,24.4,29.80,West,270,9.0,20.0,70,0.00,,,0.00,Wunderground v.1.12,2013-02-05 17:10:00,
2013-02-05 12:14:00,24.2,15.8,29.86,SW,223,6.0,12.0,70,0.00,,,0.00,Wunderground v.1.12,2013-02-05 17:14:00,
2013-02-05 12:15:00,33.1,24.0,29.80,West,270,9.0,20.0,69,0.00,,,0.00,Wunderground v.1.12,2013-02-05 17:15:00,
2013-02-05 12:19:00,24.4,15.7,29.86,SW,220,7.0,12.0,69,0.00,,,0.00,Wunderground v.1.12,2013-02-05 17:19:00,
2013-02-05 12:20:00,33.1,24.0,29.80,West,270,9.0,20.0,69,0.00,,,0.00,Wunderground v.1.12,2013-02-05 17:20:00,
2013-02-05 12:24:00,24.5,15.1,29.86,WSW,257,6.0,13.0,67,0.00,,,0.00,Wunderground v.1.12,2013-02-05 17:24:00,
2013-02-05 12:25:00,33.1,24.0,29.80,West,270,9.0,20.0,69,0.00,,,0.00,Wunderground v.1.12,2013-02-05 17:25:00,
2013-02-05 12:29:00,24.5,14.1,29.86,SW,218,5.0,11.0,64,0.00,,,0.00,Wunderground v.1.12,2013-02-05 17:29:00,
2013-02-05 12:30:00,33.1,24.0,29.80,West,270,9.0,20.0,69,0.00,,,0.00,Wunderground v.1.12,2013-02-05 17:30:00,
2013-02-05 12:34:00,24.4,14.3,29.86,SSW,212,15.0,15.0,65,0.00,,,0.00,Wunderground v.1.12,2013-02-05 17:34:00,
2013-02-05 12:35:00,33.1,24.0,29.80,West,270,9.0,20.0,69,0.00,,,0.00,Wunderground v.1.12,2013-02-05 17:35:00,
2013-02-05 12:39:00,24.4,14.7,29.86,WSW,250,5.0,10.0,66,0.00,,,0.00,Wunderground v.1.12,2013-02-05 17:39:00,
2013-02-05 12:40:00,33.1,24.0,29.80,West,270,9.0,20.0,69,0.00,,,0.00,Wunderground v.1.12,2013-02-05 17:40:00,
2013-02-05 12:44:00,24.4,14.3,29.86,SW,229,8.0,15.0,65,0.00,,,0.00,Wunderground v.1.12,2013-02-05 17:44:00,
2013-02-05 12:45:00,32.8,24.1,29.81,West,270,10.0,21.0,70,0.00,,,0.00,Wunderground v.1.12,2013-02-05 17:45:00,
2013-02-05 12:49:00,24.4,14.3,29.86,SSW,205,1.0,9.0,65,0.00,,,0.00,Wunderground v.1.12,2013-02-05 17:49:00,
2013-02-05 12:50:00,32.8,24.1,29.81,West,270,10.0,21.0,70,0.00,,,0.00,Wunderground v.1.12,2013-02-05 17:50:00,
2013-02-05 12:54:00,24.4,14.7,29.86,SW,234,4.0,12.0,66,0.00,,,0.00,Wunderground v.1.12,2013-02-05 17:54:00,
2013-02-05 12:55:00,32.8,24.1,29.81,West,270,10.0,21.0,70,0.00,,,0.00,Wunderground v.1.12,2013-02-05 17:55:00,
2013-02-05 12:59:00,24.4,14.7,29.85,South,186,5.0,13.0,66,0.00,,,0.00,Wunderground v.1.12,2013-02-05 17:59:00,
2013-02-05 13:00:00,32.8,24.1,29.81,West,270,10.0,21.0,70,0.00,,,0.00,Wunderground v.1.12,2013-02-05 18:00:00,
2013-02-05 13:04:00,24.5,15.1,29.85,SW,235,2.0,9.0,67,0.00,,,0.00,Wunderground v.1.12,2013-02-05 18:04:00,
2013-02-05 13:05:00,32.8,24.1,29.81,West,270,10.0,21.0,70,0.00,,,0.00,Wunderground v.1.12,2013-02-05 18:05:00,
2013-02-05 13:10:00,24.7,14.9,29.85,WSW,241,2.0,5.0,66,0.00,,,0.00,Wunderground v.1.12,2013-02-05 18:10:00,
2013-02-05 13:15:00,24.8,15.0,29.84,SW,229,2.0,8.0,66,0.00,,,0.00,Wunderground v.1.12,2013-02-05 18:15:00,
2013-02-05 13:20:00,24.8,15.0,29.84,SSW,205,6.0,8.0,66,0.00,,,0.00,Wunderground v.1.12,2013-02-05 18:20:00,
2013-02-05 13:25:00,25.0,15.2,29.84,SW,231,2.0,5.0,66,0.00,,,0.00,Wunderground v.1.12,2013-02-05 18:25:00,
2013-02-05 13:30:00,25.0,14.9,29.83,SW,231,8.0,11.0,65,0.00,,,0.00,Wunderground v.1.12,2013-02-05 18:30:00,
2013-02-05 13:35:00,25.0,14.5,29.83,SW,223,6.0,8.0,64,0.00,,,0.00,Wunderground v.1.12,2013-02-05 18:35:00,
2013-02-05 13:40:00,25.1,14.6,29.83,SSW,211,5.0,7.0,64,0.00,,,0.00,Wunderground v.1.12,2013-02-05 18:40:00,
2013-02-05 13:45:00,25.0,14.9,29.82,SW,217,11.0,11.0,65,0.00,,,0.00,Wunderground v.1.12,2013-02-05 18:45:00,
2013-02-05 13:50:00,25.0,14.9,29.82,SW,221,4.0,8.0,65,0.00,,,0.00,Wunderground v.1.12,2013-02-05 18:50:00,
2013-02-05 13:55:00,25.0,15.2,29.82,WSW,255,9.0,11.0,66,0.00,,,0.00,Wunderground v.1.12,2013-02-05 18:55:00,
2013-02-05 14:00:00,25.1,14.6,29.83,SW,214,6.0,11.0,64,0.00,,,0.00,Wunderground v.1.12,2013-02-05 19:00:00,
2013-02-05 14:05:00,25.4,15.3,29.83,SW,233,7.0,7.0,65,0.00,,,0.00,Wunderground v.1.12,2013-02-05 19:05:00,
2013-02-05 14:10:00,25.3,14.8,29.83,WSW,237,4.0,7.0,64,0.00,,,0.00,Wunderground v.1.12,2013-02-05 19:10:00,
2013-02-05 14:15:00,25.1,15.0,29.82,SW,228,5.0,8.0,65,0.00,,,0.00,Wunderground v.1.12,2013-02-05 19:15:00,
2013-02-05 14:20:00,25.3,15.5,29.82,SW,223,5.0,7.0,66,0.00,,,0.00,Wunderground v.1.12,2013-02-05 19:20:00,
2013-02-05 14:25:00,25.3,15.5,29.82,SW,227,7.0,7.0,66,0.00,,,0.00,Wunderground v.1.12,2013-02-05 19:25:00,
2013-02-05 14:30:00,25.3,15.9,29.82,SSW,202,5.0,7.0,67,0.00,,,0.00,Wunderground v.1.12,2013-02-05 19:30:00,
2013-02-05 14:35:00,25.1,16.0,29.82,SW,223,6.0,11.0,68,0.00,,,0.00,Wunderground v.1.12,2013-02-05 19:35:00,
2013-02-05 14:40:00,25.1,16.0,29.82,SW,235,8.0,13.0,68,0.00,,,0.00,Wunderground v.1.12,2013-02-05 19:40:00,
2013-02-05 14:45:00,25.3,16.5,29.81,SW,216,4.0,8.0,69,0.00,,,0.00,Wunderground v.1.12,2013-02-05 19:45:00,
2013-02-05 14:50:00,25.4,16.6,29.81,SW,216,6.0,9.0,69,0.00,,,0.00,Wunderground v.1.12,2013-02-05 19:50:00,
2013-02-05 14:55:00,25.4,17.0,29.81,SW,233,6.0,9.0,70,0.00,,,0.00,Wunderground v.1.12,2013-02-05 19:55:00,
2013-02-05 15:00:00,25.4,17.0,29.81,SW,223,5.0,6.0,70,0.00,,,0.00,Wunderground v.1.12,2013-02-05 20:00:00,
2013-02-05 15:05:00,25.6,17.2,29.81,SW,219,7.0,7.0,70,0.00,,,0.00,Wunderground v.1.12,2013-02-05 20:05:00,
2013-02-05 15:10:00,32.1,24.7,29.85,West,270,8.0,19.0,74,0.00,,,0.00,Wunderground v.1.12,2013-02-05 20:10:00,
2013-02-05 15:11:00,25.4,17.3,29.81,SW,227,7.0,8.0,71,0.00,,,0.00,Wunderground v.1.12,2013-02-05 20:11:00,
2013-02-05 15:15:00,31.6,24.9,29.86,West,270,8.0,16.0,76,0.00,,,0.00,Wunderground v.1.12,2013-02-05 20:15:00,
2013-02-05 15:16:00,25.4,17.3,29.81,SW,215,4.0,7.0,71,0.00,,,0.00,Wunderground v.1.12,2013-02-05 20:16:00,
2013-02-05 15:20:00,31.6,24.9,29.86,West,270,8.0,16.0,76,0.00,,,0.00,Wunderground v.1.12,2013-02-05 20:20:00,
2013-02-05 15:21:00,25.4,17.6,29.81,SW,214,6.0,11.0,72,0.00,,,0.00,Wunderground v.1.12,2013-02-05 20:21:00,
2013-02-05 15:25:00,31.6,24.9,29.86,West,270,8.0,16.0,76,0.00,,,0.00,Wunderground v.1.12,2013-02-05 20:25:00,
2013-02-05 15:26:00,25.4,17.6,29.81,SSW,210,11.0,12.0,72,0.00,,,0.00,Wunderground v.1.12,2013-02-05 20:26:00,
2013-02-05 15:30:00,31.6,24.9,29.86,West,270,8.0,16.0,76,0.00,,,0.00,Wunderground v.1.12,2013-02-05 20:30:00,
2013-02-05 15:31:00,25.6,17.8,29.81,SSW,200,5.0,9.0,72,0.00,,,0.00,Wunderground v.1.12,2013-02-05 20:31:00,
2013-02-05 15:35:00,31.6,24.9,29.86,West,270,8.0,16.0,76,0.00,,,0.00,Wunderground v.1.12,2013-02-05 20:35:00,
2013-02-05 15:36:00,25.6,17.8,29.81,SW,214,8.0,11.0,72,0.00,,,0.00,Wunderground v.1.12,2013-02-05 20:36:00,
2013-02-05 15:40:00,31.6,24.9,29.86,West,270,8.0,16.0,76,0.00,,,0.00,Wunderground v.1.12,2013-02-05 20:40:00,
2013-02-05 15:41:00,25.7,17.9,29.81,SW,214,4.0,7.0,72,0.00,,,0.00,Wunderground v.1.12,2013-02-05 20:41:00,
2013-02-05 15:45:00,31.6,24.3,29.87,West,270,8.0,16.0,74,0.00,,,0.00,Wunderground v.1.12,2013-02-05 20:45:00,
2013-02-05 15:47:00,25.7,17.9,29.81,SW,225,7.0,11.0,72,0.00,,,0.00,Wunderground v.1.12,2013-02-05 20:47:00,
2013-02-05 15:50:00,31.6,24.3,29.87,West,270,8.0,16.0,74,0.00,,,0.00,Wunderground v.1.12,2013-02-05 20:50:00,
2013-02-05 15:52:00,25.8,18.0,29.81,SSW,210,2.0,6.0,72,0.00,,,0.00,Wunderground v.1.12,2013-02-05 20:52:00,
2013-02-05 15:55:00,31.6,24.3,29.87,West,270,8.0,16.0,74,0.00,,,0.00,Wunderground v.1.12,2013-02-05 20:55:00,
2013-02-05 15:57:00,25.8,18.0,29.80,SW,218,4.0,7.0,72,0.00,,,0.00,Wunderground v.1.12,2013-02-05 20:57:00,
2013-02-05 16:00:00,31.6,24.3,29.87,West,270,8.0,16.0,74,0.00,,,0.00,Wunderground v.1.12,2013-02-05 21:00:00,
2013-02-05 16:02:00,26.0,18.2,29.80,SW,236,4.0,8.0,72,0.00,,,0.00,Wunderground v.1.12,2013-02-05 21:02:00,
2013-02-05 16:05:00,31.6,24.3,29.87,West,270,8.0,16.0,74,0.00,,,0.00,Wunderground v.1.12,2013-02-05 21:05:00,
2013-02-05 16:07:00,26.0,18.2,29.80,SW,222,8.0,8.0,72,0.00,,,0.00,Wunderground v.1.12,2013-02-05 21:07:00,
2013-02-05 16:10:00,31.6,24.3,29.87,West,270,8.0,16.0,74,0.00,,,0.00,Wunderground v.1.12,2013-02-05 21:10:00,
2013-02-05 16:12:00,26.1,18.3,29.81,SW,219,6.0,9.0,72,0.00,,,0.00,Wunderground v.1.12,2013-02-05 21:12:00,
2013-02-05 16:15:00,31.6,22.6,29.88,WNW,293,9.0,26.0,69,0.00,,,0.00,Wunderground v.1.12,2013-02-05 21:15:00,
2013-02-05 16:18:00,26.3,18.5,29.81,SW,227,9.0,12.0,72,0.00,,,0.00,Wunderground v.1.12,2013-02-05 21:18:00,
2013-02-05 16:20:00,31.6,22.6,29.88,WNW,293,9.0,26.0,69,0.00,,,0.00,Wunderground v.1.12,2013-02-05 21:20:00,
2013-02-05 16:23:00,26.3,18.2,29.81,SSW,211,9.0,12.0,71,0.00,,,0.00,Wunderground v.1.12,2013-02-05 21:23:00,
2013-02-05 16:25:00,31.6,22.6,29.88,WNW,293,9.0,26.0,69,0.00,,,0.00,Wunderground v.1.12,2013-02-05 21:25:00,
2013-02-05 16:28:00,26.1,18.3,29.80,WSW,239,6.0,15.0,72,0.00,,,0.00,Wunderground v.1.12,2013-02-05 21:28:00,
2013-02-05 16:30:00,31.6,22.6,29.88,WNW,293,9.0,26.0,69,0.00,,,0.00,Wunderground v.1.12,2013-02-05 21:30:00,
2013-02-05 16:33:00,25.8,18.7,29.80,WSW,237,4.0,13.0,74,0.00,,,0.00,Wunderground v.1.12,2013-02-05 21:33:00,
2013-02-05 16:35:00,31.6,22.6,29.88,WNW,293,9.0,26.0,69,0.00,,,0.00,Wunderground v.1.12,2013-02-05 21:35:00,
2013-02-05 16:38:00,25.8,19.0,29.80,SW,227,4.0,9.0,75,0.00,,,0.00,Wunderground v.1.12,2013-02-05 21:38:00,
2013-02-05 16:40:00,31.6,22.6,29.88,WNW,293,9.0,26.0,69,0.00,,,0.00,Wunderground v.1.12,2013-02-05 21:40:00,
2013-02-05 16:43:00,25.7,18.9,29.80,SW,224,6.0,11.0,75,0.00,,,0.00,Wunderground v.1.12,2013-02-05 21:43:00,
2013-02-05 16:45:00,31.6,22.6,29.90,WNW,293,8.0,18.0,69,0.00,,,0.00,Wunderground v.1.12,2013-02-05 21:45:00,
2013-02-05 16:48:00,25.8,19.0,29.80,SW,229,1.0,9.0,75,0.00,,,0.00,Wunderground v.1.12,2013-02-05 21:48:00,
2013-02-05 16:50:00,31.6,22.6,29.90,WNW,293,8.0,18.0,69,0.00,,,0.00,Wunderground v.1.12,2013-02-05 21:50:00,
2013-02-05 16:53:00,25.8,19.0,29.80,SW,219,7.0,8.0,75,0.00,,,0.00,Wunderground v.1.12,2013-02-05 21:53:00,
2013-02-05 16:59:00,25.8,19.0,29.81,WSW,246,6.0,9.0,75,0.00,,,0.00,Wunderground v.1.12,2013-02-05 21:59:00,
2013-02-05 17:00:00,31.6,22.6,29.90,WNW,293,8.0,18.0,69,0.00,,,0.00,Wunderground v.1.12,2013-02-05 22:00:00,
2013-02-05 17:04:00,25.8,19.3,29.81,SW,221,5.0,11.0,76,0.00,,,0.00,Wunderground v.1.12,2013-02-05 22:04:00,
2013-02-05 17:05:00,31.6,22.6,29.90,WNW,293,8.0,18.0,69,0.00,,,0.00,Wunderground v.1.12,2013-02-05 22:05:00,
2013-02-05 17:09:00,25.8,19.3,29.81,WSW,251,6.0,8.0,76,0.00,,,0.00,Wunderground v.1.12,2013-02-05 22:09:00,
2013-02-05 17:10:00,31.6,22.6,29.90,WNW,293,8.0,18.0,69,0.00,,,0.00,Wunderground v.1.12,2013-02-05 22:10:00,
2013-02-05 17:14:00,25.7,19.5,29.81,SW,223,8.0,9.0,77,0.00,,,0.00,Wunderground v.1.12,2013-02-05 22:14:00,
2013-02-05 17:15:00,31.5,22.5,29.91,WNW,293,9.0,20.0,69,0.00,,,0.00,Wunderground v.1.12,2013-02-05 22:15:00,
2013-02-05 17:19:00,25.6,19.7,29.81,SW,227,5.0,9.0,78,0.00,,,0.00,Wunderground v.1.12,2013-02-05 22:19:00,
2013-02-05 17:20:00,31.5,22.5,29.91,WNW,293,9.0,20.0,69,0.00,,,0.00,Wunderground v.1.12,2013-02-05 22:20:00,
2013-02-05 17:24:00,25.4,19.8,29.81,SW,229,8.0,12.0,79,0.00,,,0.00,Wunderground v.1.12,2013-02-05 22:24:00,
2013-02-05 17:29:00,25.3,20.0,29.81,SW,223,5.0,9.0,80,0.00,,,0.00,Wunderground v.1.12,2013-02-05 22:29:00,
2013-02-05 17:30:00,31.5,22.5,29.91,WNW,293,9.0,20.0,69,0.00,,,0.00,Wunderground v.1.12,2013-02-05 22:30:00,
2013-02-05 17:34:00,25.3,20.3,29.81,South,191,1.0,9.0,81,0.00,,,0.00,Wunderground v.1.12,2013-02-05 22:34:00,
2013-02-05 17:35:00,31.5,22.5,29.91,WNW,293,9.0,20.0,69,0.00,,,0.00,Wunderground v.1.12,2013-02-05 22:35:00,
2013-02-05 17:39:00,25.1,20.4,29.81,SW,227,2.0,9.0,82,0.00,,,0.00,Wunderground v.1.12,2013-02-05 22:39:00,
2013-02-05 17:40:00,31.5,22.5,29.91,WNW,293,9.0,20.0,69,0.00,,,0.00,Wunderground v.1.12,2013-02-05 22:40:00,
2013-02-05 17:44:00,25.0,20.6,29.81,SW,227,5.0,7.0,83,0.00,,,0.00,Wunderground v.1.12,2013-02-05 22:44:00,
2013-02-05 17:45:00,31.3,22.6,29.91,WNW,293,8.0,16.0,70,0.00,,,0.00,Wunderground v.1.12,2013-02-05 22:45:00,
2013-02-05 17:49:00,25.0,20.6,29.81,SW,225,13.0,13.0,83,0.00,,,0.00,Wunderground v.1.12,2013-02-05 22:49:00,
2013-02-05 17:50:00,31.3,22.6,29.91,WNW,293,8.0,16.0,70,0.00,,,0.00,Wunderground v.1.12,2013-02-05 22:50:00,
2013-02-05 17:54:00,25.0,20.6,29.81,SSW,212,5.0,11.0,83,0.00,,,0.00,Wunderground v.1.12,2013-02-05 22:54:00,
2013-02-05 17:55:00,31.3,22.6,29.91,WNW,293,8.0,16.0,70,0.00,,,0.00,Wunderground v.1.12,2013-02-05 22:55:00,
2013-02-05 17:59:00,25.0,20.6,29.81,SW,226,6.0,13.0,83,0.00,,,0.00,Wunderground v.1.12,2013-02-05 22:59:00,
2013-02-05 18:00:00,31.3,22.6,29.91,WNW,293,8.0,16.0,70,0.00,,,0.00,Wunderground v.1.12,2013-02-05 23:00:00,
2013-02-05 18:04:00,24.8,20.7,29.81,SSW,204,4.0,9.0,84,0.00,,,0.00,Wunderground v.1.12,2013-02-05 23:04:00,
2013-02-05 18:05:00,31.3,22.6,29.91,WNW,293,8.0,16.0,70,0.00,,,0.00,Wunderground v.1.12,2013-02-05 23:05:00,
2013-02-05 18:10:00,24.8,20.7,29.81,SW,215,2.0,5.0,84,0.00,,,0.00,Wunderground v.1.12,2013-02-05 23:10:00,
2013-02-05 18:15:00,24.7,20.8,29.82,SW,219,4.0,5.0,85,0.00,,,0.00,Wunderground v.1.12,2013-02-05 23:15:00,
2013-02-05 18:20:00,24.7,20.8,29.82,SW,219,5.0,5.0,85,0.00,,,0.00,Wunderground v.1.12,2013-02-05 23:20:00,
2013-02-05 18:25:00,24.7,20.8,29.82,SSW,213,7.0,7.0,85,0.00,,,0.00,Wunderground v.1.12,2013-02-05 23:25:00,
2013-02-05 18:30:00,24.7,21.1,29.83,SW,216,5.0,8.0,86,0.00,,,0.00,Wunderground v.1.12,2013-02-05 23:30:00,
2013-02-05 18:35:00,24.7,21.1,29.83,SW,225,7.0,11.0,86,0.00,,,0.00,Wunderground v.1.12,2013-02-05 23:35:00,
2013-02-05 18:40:00,24.5,20.9,29.83,SW,227,6.0,8.0,86,0.00,,,0.00,Wunderground v.1.12,2013-02-05 23:40:00,
2013-02-05 18:45:00,30.9,22.3,29.93,West,270,7.0,15.0,70,0.00,,,0.00,Wunderground v.1.12,2013-02-05 23:45:00,
2013-02-05 18:46:00,24.5,20.9,29.83,SW,231,4.0,8.0,86,0.00,,,0.00,Wunderground v.1.12,2013-02-05 23:46:00,
2013-02-05 18:50:00,30.9,22.3,29.93,West,270,7.0,15.0,70,0.00,,,0.00,Wunderground v.1.12,2013-02-05 23:50:00,
2013-02-05 18:51:00,24.4,20.8,29.83,SW,229,5.0,8.0,86,0.00,,,0.00,Wunderground v.1.12,2013-02-05 23:51:00,
2013-02-05 18:55:00,30.9,22.3,29.93,West,270,7.0,15.0,70,0.00,,,0.00,Wunderground v.1.12,2013-02-05 23:55:00,
2013-02-05 18:56:00,24.4,21.1,29.83,SW,223,4.0,7.0,87,0.00,,,0.00,Wunderground v.1.12,2013-02-05 23:56:00,
2013-02-05 19:00:00,30.9,22.3,29.93,West,270,7.0,15.0,70,0.00,,,0.00,Wunderground v.1.12,2013-02-06 00:00:00,
2013-02-05 19:01:00,24.4,21.1,29.83,SW,229,6.0,7.0,87,0.00,,,0.00,Wunderground v.1.12,2013-02-06 00:01:00,
2013-02-05 19:05:00,30.9,22.3,29.93,West,270,7.0,15.0,70,0.00,,,0.00,Wunderground v.1.12,2013-02-06 00:05:00,
2013-02-05 19:06:00,24.5,21.2,29.83,SW,222,2.0,8.0,87,0.00,,,0.00,Wunderground v.1.12,2013-02-06 00:06:00,
2013-02-05 19:10:00,30.9,22.3,29.93,West,270,7.0,15.0,70,0.00,,,0.00,Wunderground v.1.12,2013-02-06 00:10:00,
2013-02-05 19:11:00,24.5,21.5,29.83,WSW,246,6.0,7.0,88,0.00,,,0.00,Wunderground v.1.12,2013-02-06 00:11:00,
2013-02-05 19:15:00,30.9,22.6,29.94,West,270,7.0,17.0,71,0.00,,,0.00,Wunderground v.1.12,2013-02-06 00:15:00,
2013-02-05 19:16:00,24.7,21.7,29.83,SW,229,7.0,7.0,88,0.00,,,0.00,Wunderground v.1.12,2013-02-06 00:16:00,
2013-02-05 19:20:00,30.9,22.6,29.94,West,270,7.0,17.0,71,0.00,,,0.00,Wunderground v.1.12,2013-02-06 00:20:00,
2013-02-05 19:21:00,24.7,21.7,29.83,SW,229,2.0,6.0,88,0.00,,,0.00,Wunderground v.1.12,2013-02-06 00:21:00,
2013-02-05 19:25:00,30.9,22.6,29.94,West,270,7.0,17.0,71,0.00,,,0.00,Wunderground v.1.12,2013-02-06 00:25:00,
2013-02-05 19:26:00,24.8,21.8,29.85,SW,233,2.0,5.0,88,0.00,,,0.00,Wunderground v.1.12,2013-02-06 00:26:00,
2013-02-05 19:30:00,30.9,22.6,29.94,West,270,7.0,17.0,71,0.00,,,0.00,Wunderground v.1.12,2013-02-06 00:30:00,
2013-02-05 19:31:00,24.8,21.8,29.85,SW,235,2.0,6.0,88,0.00,,,0.00,Wunderground v.1.12,2013-02-06 00:31:00,
2013-02-05 19:35:00,30.9,22.6,29.94,West,270,7.0,17.0,71,0.00,,,0.00,Wunderground v.1.12,2013-02-06 00:35:00,
2013-02-05 19:36:00,24.8,21.8,29.85,SW,236,5.0,6.0,88,0.00,,,0.00,Wunderground v.1.12,2013-02-06 00:36:00,
2013-02-05 19:40:00,30.9,22.6,29.94,West,270,7.0,17.0,71,0.00,,,0.00,Wunderground v.1.12,2013-02-06 00:40:00,
2013-02-05 19:41:00,25.0,21.9,29.85,SW,236,7.0,7.0,88,0.00,,,0.00,Wunderground v.1.12,2013-02-06 00:41:00,
2013-02-05 19:45:00,30.7,23.1,29.95,West,270,5.0,14.0,73,0.00,,,0.00,Wunderground v.1.12,2013-02-06 00:45:00,
2013-02-05 19:46:00,25.0,21.9,29.85,SW,235,5.0,6.0,88,0.00,,,0.00,Wunderground v.1.12,2013-02-06 00:46:00,
2013-02-05 19:50:00,30.7,23.1,29.95,West,270,5.0,14.0,73,0.00,,,0.00,Wunderground v.1.12,2013-02-06 00:50:00,
2013-02-05 19:51:00,25.1,22.0,29.85,SW,214,8.0,9.0,88,0.00,,,0.00,Wunderground v.1.12,2013-02-06 00:51:00,
2013-02-05 19:55:00,30.7,23.1,29.95,West,270,5.0,14.0,73,0.00,,,0.00,Wunderground v.1.12,2013-02-06 00:55:00,
2013-02-05 19:56:00,25.1,22.0,29.84,WSW,238,7.0,9.0,88,0.00,,,0.00,Wunderground v.1.12,2013-02-06 00:56:00,
2013-02-05 20:00:00,30.7,23.1,29.95,West,270,5.0,14.0,73,0.00,,,0.00,Wunderground v.1.12,2013-02-06 01:00:00,
2013-02-05 20:01:00,25.1,22.0,29.84,SW,227,5.0,8.0,88,0.00,,,0.00,Wunderground v.1.12,2013-02-06 01:01:00,
2013-02-05 20:05:00,30.7,23.1,29.95,West,270,5.0,14.0,73,0.00,,,0.00,Wunderground v.1.12,2013-02-06 01:05:00,
2013-02-05 20:06:00,25.3,22.2,29.84,SW,235,5.0,11.0,88,0.00,,,0.00,Wunderground v.1.12,2013-02-06 01:06:00,
2013-02-05 20:10:00,30.7,23.1,29.95,West,270,5.0,14.0,73,0.00,,,0.00,Wunderground v.1.12,2013-02-06 01:10:00,
2013-02-05 20:11:00,25.3,22.2,29.85,SW,226,1.0,6.0,88,0.00,,,0.00,Wunderground v.1.12,2013-02-06 01:11:00,
2013-02-05 20:15:00,30.7,23.4,29.95,West,270,5.0,12.0,74,0.00,,,0.00,Wunderground v.1.12,2013-02-06 01:15:00,
2013-02-05 20:16:00,25.4,22.3,29.85,WSW,239,2.0,7.0,88,0.00,,,0.00,Wunderground v.1.12,2013-02-06 01:16:00,
2013-02-05 20:20:00,30.7,23.4,29.95,West,270,5.0,12.0,74,0.00,,,0.00,Wunderground v.1.12,2013-02-06 01:20:00,
2013-02-05 20:21:00,25.4,22.3,29.85,WSW,241,8.0,8.0,88,0.00,,,0.00,Wunderground v.1.12,2013-02-06 01:21:00,
2013-02-05 20:25:00,30.7,23.4,29.95,West,270,5.0,12.0,74,0.00,,,0.00,Wunderground v.1.12,2013-02-06 01:25:00,
2013-02-05 20:27:00,25.6,22.5,29.86,SW,227,4.0,7.0,88,0.00,,,0.00,Wunderground v.1.12,2013-02-06 01:27:00,
2013-02-05 20:30:00,30.7,23.4,29.95,West,270,5.0,12.0,74,0.00,,,0.00,Wunderground v.1.12,2013-02-06 01:30:00,
2013-02-05 20:32:00,25.6,22.5,29.86,SW,228,4.0,6.0,88,0.00,,,0.00,Wunderground v.1.12,2013-02-06 01:32:00,
2013-02-05 20:35:00,30.7,23.4,29.95,West,270,5.0,12.0,74,0.00,,,0.00,Wunderground v.1.12,2013-02-06 01:35:00,
2013-02-05 20:37:00,25.7,22.6,29.86,WSW,243,4.0,8.0,88,0.00,,,0.00,Wunderground v.1.12,2013-02-06 01:37:00,
2013-02-05 20:40:00,30.7,23.4,29.95,West,270,5.0,12.0,74,0.00,,,0.00,Wunderground v.1.12,2013-02-06 01:40:00,
2013-02-05 20:43:00,25.7,22.6,29.86,SSW,210,5.0,11.0,88,0.00,,,0.00,Wunderground v.1.12,2013-02-06 01:43:00,
2013-02-05 20:45:00,30.7,24.0,29.96,West,270,6.0,17.0,76,0.00,,,0.00,Wunderground v.1.12,2013-02-06 01:45:00,
2013-02-05 20:48:00,25.7,22.6,29.86,WSW,242,5.0,7.0,88,0.00,,,0.00,Wunderground v.1.12,2013-02-06 01:48:00,
2013-02-05 20:50:00,30.7,24.0,29.96,West,270,6.0,17.0,76,0.00,,,0.00,Wunderground v.1.12,2013-02-06 01:50:00,
2013-02-05 20:53:00,25.8,22.7,29.86,SW,223,1.0,9.0,88,0.00,,,0.00,Wunderground v.1.12,2013-02-06 01:53:00,
2013-02-05 20:55:00,30.7,24.0,29.96,West,270,6.0,17.0,76,0.00,,,0.00,Wunderground v.1.12,2013-02-06 01:55:00,
2013-02-05 20:59:00,25.8,22.7,29.86,SW,227,2.0,9.0,88,0.00,,,0.00,Wunderground v.1.12,2013-02-06 01:59:00,
2013-02-05 21:00:00,30.7,24.0,29.96,West,270,6.0,17.0,76,0.00,,,0.00,Wunderground v.1.12,2013-02-06 02:00:00,
2013-02-05 21:04:00,25.8,22.7,29.86,SW,232,7.0,7.0,88,0.00,,,0.00,Wunderground v.1.12,2013-02-06 02:04:00,
2013-02-05 21:05:00,30.7,24.0,29.96,West,270,6.0,17.0,76,0.00,,,0.00,Wunderground v.1.12,2013-02-06 02:05:00,
2013-02-05 21:09:00,25.8,22.7,29.86,SW,232,1.0,6.0,88,0.00,,,0.00,Wunderground v.1.12,2013-02-06 02:09:00,
2013-02-05 21:10:00,30.7,24.0,29.96,West,270,6.0,17.0,76,0.00,,,0.00,Wunderground v.1.12,2013-02-06 02:10:00,
2013-02-05 21:14:00,25.8,22.7,29.87,SW,235,5.0,8.0,88,0.00,,,0.00,Wunderground v.1.12,2013-02-06 02:14:00,
2013-02-05 21:15:00,30.6,24.2,29.98,WNW,293,6.0,15.0,77,0.00,,,0.00,Wunderground v.1.12,2013-02-06 02:15:00,
2013-02-05 21:19:00,26.0,22.9,29.87,SW,235,5.0,9.0,88,0.00,,,0.00,Wunderground v.1.12,2013-02-06 02:19:00,
2013-02-05 21:20:00,30.6,24.2,29.98,WNW,293,6.0,15.0,77,0.00,,,0.00,Wunderground v.1.12,2013-02-06 02:20:00,
2013-02-05 21:24:00,26.0,22.9,29.87,SW,235,1.0,7.0,88,0.00,,,0.00,Wunderground v.1.12,2013-02-06 02:24:00,
2013-02-05 21:25:00,30.6,24.2,29.98,WNW,293,6.0,15.0,77,0.00,,,0.00,Wunderground v.1.12,2013-02-06 02:25:00,
2013-02-05 21:29:00,26.0,22.9,29.87,WSW,254,4.0,8.0,88,0.00,,,0.00,Wunderground v.1.12,2013-02-06 02:29:00,
2013-02-05 21:30:00,30.6,24.2,29.98,WNW,293,6.0,15.0,77,0.00,,,0.00,Wunderground v.1.12,2013-02-06 02:30:00,
2013-02-05 21:34:00,26.0,22.9,29.87,WSW,254,5.0,7.0,88,0.00,,,0.00,Wunderground v.1.12,2013-02-06 02:34:00,
2013-02-05 21:35:00,30.6,24.2,29.98,WNW,293,6.0,15.0,77,0.00,,,0.00,Wunderground v.1.12,2013-02-06 02:35:00,
2013-02-05 21:40:00,26.1,23.0,29.87,WSW,254,5.0,5.0,88,0.00,,,0.00,Wunderground v.1.12,2013-02-06 02:40:00,
2013-02-05 21:45:00,26.1,23.0,29.88,WSW,254,4.0,4.0,88,0.00,,,0.00,Wunderground v.1.12,2013-02-06 02:45:00,
2013-02-05 21:50:00,26.3,23.2,29.88,WSW,253,2.0,3.0,88,0.00,,,0.00,Wunderground v.1.12,2013-02-06 02:50:00,
2013-02-05 21:55:00,26.3,23.2,29.88,WSW,253,4.0,4.0,88,0.00,,,0.00,Wunderground v.1.12,2013-02-06 02:55:00,
2013-02-05 22:00:00,26.3,23.2,29.88,WSW,253,2.0,3.0,88,0.00,,,0.00,Wunderground v.1.12,2013-02-06 03:00:00,
2013-02-05 22:05:00,26.4,23.3,29.88,WSW,253,5.0,5.0,88,0.00,,,0.00,Wunderground v.1.12,2013-02-06 03:05:00,
2013-02-05 22:10:00,26.4,23.3,29.88,WSW,253,4.0,4.0,88,0.00,,,0.00,Wunderground v.1.12,2013-02-06 03:10:00,
2013-02-05 22:15:00,26.6,23.5,29.89,WSW,252,4.0,4.0,88,0.00,,,0.00,Wunderground v.1.12,2013-02-06 03:15:00,
2013-02-05 22:20:00,26.6,23.8,29.89,WSW,252,4.0,4.0,89,0.00,,,0.00,Wunderground v.1.12,2013-02-06 03:20:00,
2013-02-05 22:25:00,26.6,23.8,29.89,WSW,250,2.0,5.0,89,0.00,,,0.00,Wunderground v.1.12,2013-02-06 03:25:00,
2013-02-05 22:30:00,26.6,23.8,29.89,WSW,250,4.0,4.0,89,0.00,,,0.00,Wunderground v.1.12,2013-02-06 03:30:00,
2013-02-05 22:35:00,26.7,23.9,29.89,WSW,250,0.0,5.0,89,0.00,,,0.00,Wunderground v.1.12,2013-02-06 03:35:00,
2013-02-05 22:40:00,30.7,23.7,29.99,WNW,293,6.0,14.0,75,0.00,,,0.00,Wunderground v.1.12,2013-02-06 03:40:00,
2013-02-05 22:41:00,26.7,23.9,29.89,WSW,250,2.0,6.0,89,0.00,,,0.00,Wunderground v.1.12,2013-02-06 03:41:00,
2013-02-05 22:45:00,26.7,23.9,29.90,WSW,246,7.0,9.0,89,0.00,,,0.00,Wunderground v.1.12,2013-02-06 03:45:00,
2013-02-05 22:50:00,26.7,23.9,29.90,WSW,246,4.0,6.0,89,0.00,,,0.00,Wunderground v.1.12,2013-02-06 03:50:00,
2013-02-05 22:55:00,30.7,23.7,29.99,West,270,5.0,12.0,75,0.00,,,0.00,Wunderground v.1.12,2013-02-06 03:55:00,
2013-02-05 22:56:00,26.9,24.1,29.90,WSW,246,1.0,5.0,89,0.00,,,0.00,Wunderground v.1.12,2013-02-06 03:56:00,
2013-02-05 23:00:00,30.7,23.7,29.99,West,270,5.0,12.0,75,0.00,,,0.00,Wunderground v.1.12,2013-02-06 04:00:00,
2013-02-05 23:01:00,26.9,24.4,29.90,WSW,246,4.0,4.0,90,0.00,,,0.00,Wunderground v.1.12,2013-02-06 04:01:00,
2013-02-05 23:05:00,30.7,23.7,29.99,West,270,5.0,12.0,75,0.00,,,0.00,Wunderground v.1.12,2013-02-06 04:05:00,
2013-02-05 23:06:00,26.9,24.4,29.90,WSW,246,4.0,5.0,90,0.00,,,0.00,Wunderground v.1.12,2013-02-06 04:06:00,
2013-02-05 23:10:00,30.7,23.7,29.99,West,270,5.0,12.0,75,0.00,,,0.00,Wunderground v.1.12,2013-02-06 04:10:00,
2013-02-05 23:11:00,27.0,24.5,29.90,WSW,246,4.0,6.0,90,0.00,,,0.00,Wunderground v.1.12,2013-02-06 04:11:00,
2013-02-05 23:15:00,30.7,23.4,30.00,West,270,5.0,13.0,74,0.00,,,0.00,Wunderground v.1.12,2013-02-06 04:15:00,
2013-02-05 23:16:00,27.0,24.5,29.91,WSW,246,4.0,4.0,90,0.00,,,0.00,Wunderground v.1.12,2013-02-06 04:16:00,
2013-02-05 23:20:00,30.7,23.4,30.00,West,270,5.0,13.0,74,0.00,,,0.00,Wunderground v.1.12,2013-02-06 04:20:00,
2013-02-05 23:21:00,27.0,24.5,29.91,WSW,246,1.0,5.0,90,0.00,,,0.00,Wunderground v.1.12,2013-02-06 04:21:00,
2013-02-05 23:25:00,30.7,23.4,30.00,West,270,5.0,13.0,74,0.00,,,0.00,Wunderground v.1.12,2013-02-06 04:25:00,
2013-02-05 23:26:00,27.0,24.5,29.92,WSW,246,5.0,6.0,90,0.00,,,0.00,Wunderground v.1.12,2013-02-06 04:26:00,
2013-02-05 23:30:00,30.7,23.4,30.00,West,270,5.0,13.0,74,0.00,,,0.00,Wunderground v.1.12,2013-02-06 04:30:00,
2013-02-05 23:32:00,27.0,24.5,29.92,WSW,246,0.0,4.0,90,0.00,,,0.00,Wunderground v.1.12,2013-02-06 04:32:00,
2013-02-05 23:35:00,30.7,23.4,30.00,West,270,5.0,13.0,74,0.00,,,0.00,Wunderground v.1.12,2013-02-06 04:35:00,
2013-02-05 23:37:00,27.0,24.7,29.92,WNW,289,4.0,6.0,91,0.00,,,0.00,Wunderground v.1.12,2013-02-06 04:37:00,
2013-02-05 23:40:00,30.7,23.4,30.00,West,270,5.0,13.0,74,0.00,,,0.00,Wunderground v.1.12,2013-02-06 04:40:00,
2013-02-05 23:42:00,27.0,24.7,29.92,WNW,289,0.0,5.0,91,0.00,,,0.00,Wunderground v.1.12,2013-02-06 04:42:00,
2013-02-05 23:45:00,30.7,23.4,30.01,West,270,6.0,13.0,74,0.00,,,0.00,Wunderground v.1.12,2013-02-06 04:45:00,
2013-02-05 23:47:00,27.2,24.9,29.92,NW,319,6.0,9.0,91,0.00,,,0.00,Wunderground v.1.12,2013-02-06 04:47:00,
2013-02-05 23:50:00,30.7,23.4,30.01,West,270,6.0,13.0,74,0.00,,,0.00,Wunderground v.1.12,2013-02-06 04:50:00,
2013-02-05 23:52:00,27.5,25.2,29.92,NNW,344,3.0,12.0,91,0.00,,,0.00,Wunderground v.1.12,2013-02-06 04:52:00,
2013-02-05 23:55:00,30.7,23.4,30.01,West,270,6.0,13.0,74,0.00,,,0.00,Wunderground v.1.12,2013-02-06 04:55:00,
2013-02-05 23:57:00,27.5,25.2,29.93,NNW,337,11.0,11.0,91,0.00,,,0.00,Wunderground v.1.12,2013-02-06 04:57:00,